createdAt,value
2022-07-28T10:03:08.100Z,67.50
2022-07-28T10:04:07.952Z,67.00
2022-07-28T10:05:07.961Z,66.90
2022-07-28T10:06:07.885Z,67.86
2022-07-28T10:07:07.894Z,66.67
2022-07-28T10:08:07.902Z,65.77
2022-07-28T10:09:07.973Z,65.27
2022-07-28T10:10:07.894Z,65.74
2022-07-28T10:11:07.833Z,65.14
2022-07-28T10:12:07.827Z,64.45
2022-07-28T10:13:07.811Z,64.54
2022-07-28T10:14:07.818Z,64.84
2022-07-28T10:15:07.839Z,63.72
2022-07-28T10:16:07.853Z,63.65
2022-07-28T10:17:07.765Z,63.32
2022-07-28T10:18:07.783Z,64.25
2022-07-28T10:19:08.154Z,64.04
2022-07-28T10:20:07.777Z,63.65
2022-07-28T10:21:07.737Z,63.02
2022-07-28T10:22:07.706Z,63.65
2022-07-28T10:23:07.747Z,63.12
2022-07-28T10:24:07.699Z,63.42
2022-07-28T10:25:07.690Z,63.62
2022-07-28T10:26:11.013Z,63.32
2022-07-28T10:27:08.648Z,63.62
2022-07-28T10:28:07.733Z,63.52
2022-07-28T10:29:07.714Z,64.39
2022-07-28T10:30:07.621Z,64.39
2022-07-28T10:31:07.706Z,62.59
2022-07-28T10:32:07.650Z,62.59
2022-07-28T10:33:07.647Z,62.89
2022-07-28T10:34:07.575Z,62.10
2022-07-28T10:35:07.650Z,62.29
2022-07-28T10:36:07.571Z,62.69
2022-07-28T10:37:07.583Z,63.09
2022-07-28T10:38:07.575Z,63.19
2022-07-28T10:39:07.594Z,62.59
2022-07-28T10:40:10.265Z,62.19
2022-07-28T10:41:07.509Z,61.69
2022-07-28T10:42:07.617Z,61.90
2022-07-28T10:43:07.515Z,61.50
2022-07-28T10:44:07.522Z,61.50
2022-07-28T10:45:07.524Z,61.99
2022-07-28T10:46:10.701Z,62.99
2022-07-28T10:47:08.523Z,62.89
2022-07-28T10:48:07.463Z,61.47
2022-07-28T10:49:09.809Z,63.36
2022-07-28T10:50:07.443Z,62.07
2022-07-28T10:51:07.387Z,60.97
2022-07-28T10:52:19.709Z,62.23
2022-07-28T10:53:08.436Z,61.44
2022-07-28T10:54:07.379Z,60.38
2022-07-28T10:55:07.389Z,60.55
2022-07-28T10:56:07.329Z,61.47
2022-07-28T10:57:07.333Z,62.07
2022-07-28T10:58:11.189Z,62.16
2022-07-28T10:59:07.337Z,61.07
2022-07-28T11:00:24.442Z,60.14
2022-07-28T11:01:10.671Z,60.35
2022-07-28T11:02:08.438Z,59.85
2022-07-28T11:03:13.320Z,60.35
2022-07-28T11:04:08.252Z,62.23
2022-07-28T11:05:07.263Z,59.95
2022-07-28T11:06:07.275Z,59.65
2022-07-28T11:07:07.229Z,61.14
2022-07-28T11:08:07.243Z,59.52
2022-07-28T11:09:07.288Z,59.05
2022-07-28T11:10:07.194Z,59.03
2022-07-28T11:11:09.006Z,59.82
2022-07-28T11:12:09.720Z,59.03
2022-07-28T11:13:07.235Z,58.23
2022-07-28T11:14:08.249Z,60.02
2022-07-28T11:15:18.410Z,59.32
2022-07-28T11:16:08.132Z,59.62
2022-07-28T11:17:10.572Z,58.60
2022-07-28T11:18:07.112Z,59.62
2022-07-28T11:19:07.883Z,58.50
2022-07-28T11:20:24.862Z,58.92
2022-07-28T11:21:08.525Z,58.83
2022-07-28T11:22:07.074Z,59.79
2022-07-28T11:23:07.064Z,58.80
2022-07-28T11:24:07.043Z,58.80
2022-07-28T11:25:18.521Z,57.70
2022-07-28T11:26:08.079Z,57.38
2022-07-28T11:27:07.007Z,58.67
2022-07-28T11:28:06.989Z,56.49
2022-07-28T11:29:07.016Z,58.67
2022-07-28T11:30:06.976Z,57.28
2022-07-28T11:31:07.049Z,57.28
2022-07-28T11:32:06.934Z,56.56
2022-07-28T11:33:07.003Z,56.46
2022-07-28T11:34:06.949Z,55.57
2022-07-28T11:35:06.920Z,55.47
2022-07-28T11:36:06.889Z,55.27
2022-07-28T11:37:06.879Z,55.79
2022-07-28T11:38:06.968Z,55.17
2022-07-28T11:39:06.897Z,56.38
2022-07-28T11:40:06.903Z,56.59
2022-07-28T11:41:06.867Z,57.35
2022-07-28T11:42:06.827Z,57.18
2022-07-28T11:43:06.867Z,57.95
2022-07-28T11:44:06.807Z,54.68
2022-07-28T11:45:06.811Z,55.17
2022-07-28T11:46:10.374Z,54.17
2022-07-28T11:47:06.789Z,54.17
2022-07-28T11:48:06.814Z,53.58
2022-07-28T11:49:06.837Z,53.88
2022-07-28T11:50:07.749Z,53.78
2022-07-28T11:51:06.810Z,53.38
2022-07-28T11:52:06.731Z,54.97
2022-07-28T11:53:06.743Z,55.47
2022-07-28T11:54:06.739Z,55.27
2022-07-28T11:55:06.689Z,54.77
2022-07-28T11:56:06.695Z,54.97
2022-07-28T11:57:06.665Z,56.26
2022-07-28T11:58:06.665Z,55.27
2022-07-28T11:59:06.680Z,56.36
2022-07-28T12:00:06.625Z,56.13
2022-07-28T12:01:06.652Z,55.34
2022-07-28T12:02:07.713Z,57.72
2022-07-28T12:03:06.607Z,54.64
2022-07-28T12:04:06.606Z,54.35
2022-07-28T12:05:06.660Z,54.94
2022-07-28T12:06:06.564Z,54.94
2022-07-28T12:07:06.628Z,55.04
2022-07-28T12:08:06.547Z,53.85
2022-07-28T12:09:06.548Z,55.15
2022-07-28T12:10:06.559Z,53.56
2022-07-28T12:11:06.505Z,53.45
2022-07-28T12:12:06.560Z,53.75
2022-07-28T12:13:06.507Z,53.56
2022-07-28T12:14:06.528Z,54.64
2022-07-28T12:15:07.525Z,54.15
2022-07-28T12:16:06.449Z,55.15
2022-07-28T12:17:06.526Z,57.13
2022-07-28T12:18:06.429Z,53.83
2022-07-28T12:19:06.437Z,53.73
2022-07-28T12:20:06.445Z,54.64
2022-07-28T12:21:07.447Z,53.83
2022-07-28T12:22:06.382Z,53.85
2022-07-28T12:23:06.373Z,53.43
2022-07-28T12:24:06.369Z,53.66
2022-07-28T12:25:06.387Z,54.75
2022-07-28T12:26:07.337Z,53.45
2022-07-28T12:27:06.394Z,55.04
2022-07-28T12:28:06.315Z,55.61
2022-07-28T12:29:08.389Z,54.42
2022-07-28T12:30:06.320Z,55.91
2022-07-28T12:31:06.335Z,54.72
2022-07-28T12:32:06.543Z,53.92
2022-07-28T12:33:06.262Z,53.92
2022-07-28T12:34:06.270Z,54.69
2022-07-28T12:35:06.256Z,55.19
2022-07-28T12:36:06.250Z,54.10
2022-07-28T12:37:06.265Z,52.41
2022-07-28T12:38:06.223Z,53.31
2022-07-28T12:39:10.831Z,52.31
2022-07-28T12:40:07.217Z,53.41
2022-07-28T12:41:06.183Z,52.81
2022-07-28T12:42:06.414Z,51.42
2022-07-28T12:43:06.169Z,53.23
2022-07-28T12:44:06.226Z,53.41
2022-07-28T12:45:06.127Z,51.92
2022-07-28T12:46:06.179Z,52.84
2022-07-28T12:47:06.293Z,53.43
2022-07-28T12:48:06.143Z,53.13
2022-07-28T12:49:06.161Z,53.63
2022-07-28T12:50:07.111Z,53.23
2022-07-28T12:51:06.168Z,53.83
2022-07-28T12:52:07.049Z,53.53
2022-07-28T12:53:06.071Z,54.00
2022-07-28T12:54:06.042Z,53.73
2022-07-28T12:55:06.046Z,54.10
2022-07-28T12:56:06.002Z,53.50
2022-07-28T12:57:06.103Z,55.09
2022-07-28T12:58:06.003Z,53.80
2022-07-28T12:59:05.972Z,53.38
2022-07-28T13:00:05.978Z,54.07
2022-07-28T13:01:06.042Z,53.88
2022-07-28T13:02:05.959Z,53.38
2022-07-28T13:03:05.989Z,53.67
2022-07-28T13:04:05.947Z,53.78
2022-07-28T13:05:06.046Z,52.29
2022-07-28T13:06:05.910Z,53.28
2022-07-28T13:07:05.879Z,53.28
2022-07-28T13:08:06.181Z,53.06
2022-07-28T13:09:05.892Z,51.60
2022-07-28T13:10:06.862Z,52.76
2022-07-28T13:11:09.807Z,53.38
2022-07-28T13:12:06.822Z,53.28
2022-07-28T13:13:05.813Z,51.79
2022-07-28T13:14:05.821Z,52.36
2022-07-28T13:15:05.809Z,52.17
2022-07-28T13:16:05.879Z,51.79
2022-07-28T13:17:05.857Z,52.78
2022-07-28T13:18:05.798Z,51.40
2022-07-28T13:19:05.922Z,53.38
2022-07-28T13:20:05.739Z,51.20
2022-07-28T13:21:05.759Z,51.30
2022-07-28T13:22:09.328Z,50.90
2022-07-28T13:23:05.730Z,50.41
2022-07-28T13:24:05.737Z,49.81
2022-07-28T13:25:05.681Z,51.10
2022-07-28T13:26:05.700Z,50.31
2022-07-28T13:27:05.702Z,51.20
2022-07-28T13:28:05.664Z,51.79
2022-07-28T13:29:12.844Z,51.89
2022-07-28T13:30:06.703Z,53.67
2022-07-28T13:31:05.763Z,53.06
2022-07-28T13:32:05.776Z,52.46
2022-07-28T13:33:08.300Z,51.37
2022-07-28T13:34:06.588Z,51.94
2022-07-28T13:35:05.611Z,51.37
2022-07-28T13:36:05.571Z,51.65
2022-07-28T13:37:05.617Z,50.66
2022-07-28T13:38:05.570Z,49.96
2022-07-28T13:39:05.534Z,50.46
2022-07-28T13:40:05.529Z,53.42
2022-07-28T13:41:05.501Z,51.84
2022-07-28T13:42:05.622Z,50.56
2022-07-28T13:43:05.664Z,50.46
2022-07-28T13:44:06.476Z,50.85
2022-07-28T13:45:05.517Z,49.07
2022-07-28T13:46:05.691Z,51.18
2022-07-28T13:47:05.648Z,51.07
2022-07-28T13:48:05.454Z,51.97
2022-07-28T13:49:05.538Z,51.65
2022-07-28T13:50:05.407Z,50.95
2022-07-28T13:51:05.408Z,51.25
2022-07-28T13:52:05.380Z,51.35
2022-07-28T13:53:06.701Z,51.23
2022-07-28T13:54:05.442Z,50.04
2022-07-28T13:55:05.384Z,51.92
2022-07-28T13:56:05.348Z,50.24
2022-07-28T13:57:05.342Z,50.43
2022-07-28T13:58:08.674Z,49.42
2022-07-28T13:59:07.370Z,48.46
2022-07-28T14:00:05.301Z,48.46
2022-07-28T14:01:06.124Z,49.44
2022-07-28T14:02:05.287Z,49.94
2022-07-28T14:03:08.461Z,48.65
2022-07-28T14:04:05.239Z,49.15
2022-07-28T14:05:05.255Z,49.35
2022-07-28T14:06:05.253Z,49.74
2022-07-28T14:07:05.217Z,50.13
2022-07-28T14:08:05.250Z,50.53
2022-07-28T14:09:05.185Z,51.13
2022-07-28T14:10:06.884Z,50.93
2022-07-28T14:11:05.176Z,51.03
2022-07-28T14:12:05.153Z,51.32
2022-07-28T14:13:05.193Z,50.73
2022-07-28T14:14:05.168Z,50.83
2022-07-28T14:15:05.119Z,51.52
2022-07-28T14:16:06.802Z,52.61
2022-07-28T14:17:25.799Z,50.61
2022-07-28T14:18:06.107Z,50.51
2022-07-28T14:19:05.618Z,51.20
2022-07-28T14:20:05.139Z,50.31
2022-07-28T14:21:05.051Z,49.62
2022-07-28T14:22:07.890Z,50.71
2022-07-28T14:23:06.095Z,49.02
2022-07-28T14:24:05.031Z,50.61
2022-07-28T14:25:05.029Z,50.01
2022-07-28T14:26:33.154Z,51.20
2022-07-28T14:27:06.000Z,49.79
2022-07-28T14:28:05.045Z,50.09
2022-07-28T14:29:04.961Z,49.01
2022-07-28T14:30:05.953Z,49.60
2022-07-28T14:31:04.953Z,47.60
2022-07-28T14:32:04.934Z,48.07
2022-07-28T14:33:04.974Z,48.14
2022-07-28T14:34:04.928Z,47.13
2022-07-28T14:35:04.902Z,46.03
2022-07-28T14:36:04.904Z,46.50
2022-07-28T14:37:08.457Z,45.71
2022-07-28T14:38:42.367Z,44.60
2022-07-28T14:39:10.546Z,44.68
2022-07-28T14:40:05.855Z,44.78
2022-07-28T14:41:04.839Z,46.15
2022-07-28T14:42:04.884Z,45.86
2022-07-28T14:43:04.857Z,44.66
2022-07-28T14:44:04.800Z,44.83
2022-07-28T14:45:04.805Z,46.09
2022-07-28T14:46:16.196Z,44.22
2022-07-28T14:47:05.846Z,44.22
2022-07-28T14:48:04.750Z,44.20
2022-07-28T14:49:04.859Z,44.35
2022-07-28T14:50:04.752Z,42.29
2022-07-28T14:51:04.738Z,43.05
2022-07-28T14:52:04.752Z,41.96
2022-07-28T14:53:04.717Z,41.66
2022-07-28T14:54:04.689Z,42.03
2022-07-28T14:55:04.685Z,40.17
2022-07-28T14:56:04.690Z,43.23
2022-07-28T14:57:04.804Z,41.58
2022-07-28T14:58:04.663Z,40.29
2022-07-28T14:59:04.708Z,40.27
2022-07-28T15:00:04.668Z,39.98
2022-07-28T15:01:04.667Z,39.66
2022-07-28T15:02:04.737Z,39.64
2022-07-28T15:03:04.749Z,39.53
2022-07-28T15:04:04.598Z,38.75
2022-07-28T15:05:04.626Z,39.43
2022-07-28T15:06:04.557Z,39.43
2022-07-28T15:07:04.614Z,39.33
2022-07-28T15:08:04.595Z,39.33
2022-07-28T15:09:04.654Z,39.72
2022-07-28T15:10:04.542Z,38.84
2022-07-28T15:11:04.501Z,39.41
2022-07-28T15:12:04.493Z,39.41
2022-07-28T15:13:04.562Z,40.19
2022-07-28T15:14:04.599Z,39.82
2022-07-28T15:15:04.475Z,40.94
2022-07-28T15:16:04.503Z,40.48
2022-07-28T15:17:04.455Z,41.78
2022-07-28T15:18:04.447Z,42.19
2022-07-28T15:19:04.562Z,42.79
2022-07-28T15:20:05.161Z,42.00
2022-07-28T15:21:04.415Z,41.68
2022-07-28T15:22:04.415Z,40.88
2022-07-28T15:23:04.374Z,41.51
2022-07-28T15:24:04.427Z,41.64
2022-07-28T15:25:04.436Z,43.46
2022-07-28T15:26:04.362Z,43.97
2022-07-28T15:27:04.342Z,43.97
2022-07-28T15:28:04.368Z,45.56
2022-07-28T15:29:04.447Z,46.08
2022-07-28T15:30:04.340Z,45.67
2022-07-28T15:31:05.471Z,44.90
2022-07-28T15:32:04.524Z,45.49
2022-07-28T15:33:04.285Z,44.92
2022-07-28T15:34:04.304Z,45.93
2022-07-28T15:35:04.250Z,46.32
2022-07-28T15:36:04.260Z,46.34
2022-07-28T15:37:04.232Z,47.63
2022-07-28T15:38:04.232Z,47.63
2022-07-28T15:39:04.276Z,46.54
2022-07-28T15:40:04.258Z,46.86
2022-07-28T15:41:04.192Z,48.24
2022-07-28T15:42:04.195Z,48.34
2022-07-28T15:43:04.208Z,48.46
2022-07-28T15:44:04.164Z,47.06
2022-07-28T15:45:04.200Z,48.12
2022-07-28T15:46:04.216Z,47.41
2022-07-28T15:47:04.170Z,46.30
2022-07-28T15:48:04.121Z,46.08
2022-07-28T15:49:04.247Z,47.34
2022-07-28T15:50:04.113Z,45.86
2022-07-28T15:51:04.149Z,44.48
2022-07-28T15:52:04.071Z,44.36
2022-07-28T15:53:04.101Z,44.17
2022-07-28T15:54:04.073Z,44.17
2022-07-28T15:55:04.035Z,45.47
2022-07-28T15:56:04.094Z,44.48
2022-07-28T15:57:04.060Z,45.07
2022-07-28T15:58:03.996Z,45.78
2022-07-28T15:59:03.981Z,46.10
2022-07-28T16:00:04.061Z,45.31
2022-07-28T16:01:03.986Z,44.53
2022-07-28T16:02:04.048Z,45.24
2022-07-28T16:03:04.071Z,45.93
2022-07-28T16:04:03.949Z,46.52
2022-07-28T16:05:03.914Z,46.12
2022-07-28T16:06:03.930Z,46.91
2022-07-28T16:07:03.916Z,47.41
2022-07-28T16:08:03.939Z,48.32
2022-07-28T16:09:03.888Z,46.74
2022-07-28T16:10:03.888Z,47.65
2022-07-28T16:11:03.856Z,47.77
2022-07-28T16:12:03.848Z,47.89
2022-07-28T16:13:03.832Z,47.89
2022-07-28T16:14:03.876Z,48.49
2022-07-28T16:15:03.805Z,48.56
2022-07-28T16:16:03.844Z,47.85
2022-07-28T16:17:03.823Z,47.65
2022-07-28T16:18:03.794Z,47.13
2022-07-28T16:19:03.794Z,47.43
2022-07-28T16:20:03.810Z,47.63
2022-07-28T16:21:03.738Z,45.95
2022-07-28T16:22:03.733Z,48.10
2022-07-28T16:23:03.713Z,46.99
2022-07-28T16:24:03.719Z,47.11
2022-07-28T16:25:03.736Z,47.01
2022-07-28T16:26:03.681Z,46.42
2022-07-28T16:27:03.668Z,45.81
2022-07-28T16:28:03.672Z,45.71
2022-07-28T16:29:03.686Z,48.37
2022-07-28T16:30:03.675Z,46.79
2022-07-28T16:31:03.689Z,46.59
2022-07-28T16:32:03.761Z,46.69
2022-07-28T16:33:03.625Z,47.48
2022-07-28T16:34:03.608Z,45.90
2022-07-28T16:35:03.607Z,46.12
2022-07-28T16:36:03.633Z,46.42
2022-07-28T16:37:05.079Z,47.38
2022-07-28T16:38:03.625Z,48.64
2022-07-28T16:39:03.537Z,46.37
2022-07-28T16:40:03.540Z,46.28
2022-07-28T16:41:03.542Z,45.98
2022-07-28T16:42:03.566Z,46.18
2022-07-28T16:43:03.561Z,46.50
2022-07-28T16:44:03.495Z,46.81
2022-07-28T16:45:03.523Z,46.54
2022-07-28T16:46:03.528Z,47.63
2022-07-28T16:47:03.481Z,47.85
2022-07-28T16:48:03.881Z,47.94
2022-07-28T16:49:03.579Z,49.15
2022-07-28T16:50:03.480Z,49.35
2022-07-28T16:51:03.423Z,48.27
2022-07-28T16:52:03.416Z,49.77
2022-07-28T16:53:03.419Z,49.25
2022-07-28T16:54:03.372Z,48.96
2022-07-28T16:55:03.447Z,48.93
2022-07-28T16:56:03.353Z,49.15
2022-07-28T16:57:03.346Z,48.07
2022-07-28T16:58:03.394Z,48.66
2022-07-28T16:59:03.312Z,49.48
2022-07-28T17:00:03.311Z,50.26
2022-07-28T17:01:03.294Z,51.07
2022-07-28T17:02:03.368Z,50.59
2022-07-28T17:03:03.292Z,51.18
2022-07-28T17:04:03.479Z,50.88
2022-07-28T17:05:03.352Z,50.81
2022-07-28T17:06:03.362Z,52.58
2022-07-28T17:07:03.259Z,52.19
2022-07-28T17:08:03.231Z,50.90
2022-07-28T17:09:03.251Z,50.81
2022-07-28T17:10:03.214Z,51.82
2022-07-28T17:11:03.229Z,51.42
2022-07-28T17:12:03.375Z,51.42
2022-07-28T17:13:03.194Z,52.04
2022-07-28T17:14:03.161Z,53.13
2022-07-28T17:15:03.177Z,51.45
2022-07-28T17:16:03.280Z,53.03
2022-07-28T17:17:03.181Z,52.64
2022-07-28T17:18:03.151Z,52.36
2022-07-28T17:19:03.137Z,53.16
2022-07-28T17:20:03.165Z,53.35
2022-07-28T17:21:03.140Z,52.36
2022-07-28T17:22:03.107Z,53.35
2022-07-28T17:23:03.114Z,53.06
2022-07-28T17:24:03.116Z,53.55
2022-07-28T17:25:03.073Z,52.56
2022-07-28T17:27:36.525Z,53.45
2022-07-28T17:28:04.020Z,53.75
2022-07-28T17:29:03.039Z,53.88
2022-07-28T17:30:03.027Z,53.97
2022-07-28T17:31:03.121Z,53.58
2022-07-28T17:32:02.981Z,55.06
2022-07-28T17:33:08.428Z,54.07
2022-07-28T17:34:03.960Z,53.78
2022-07-28T17:35:03.314Z,53.41
2022-07-28T17:36:02.959Z,53.50
2022-07-28T17:37:02.898Z,55.09
2022-07-28T17:38:02.896Z,54.00
2022-07-28T17:39:02.875Z,55.09
2022-07-28T17:40:04.656Z,55.88
2022-07-28T17:41:02.941Z,55.81
2022-07-28T17:42:02.841Z,54.22
2022-07-28T17:43:02.850Z,55.11
2022-07-28T17:44:02.832Z,56.51
2022-07-28T17:45:02.811Z,55.21
2022-07-28T17:46:08.123Z,55.21
2022-07-28T17:47:03.811Z,55.91
2022-07-28T17:48:02.770Z,55.51
2022-07-28T17:49:02.812Z,55.11
2022-07-28T17:50:02.790Z,55.54
2022-07-28T17:51:02.732Z,56.13
2022-07-28T17:52:02.788Z,56.43
2022-07-28T17:53:02.768Z,56.43
2022-07-28T17:54:02.713Z,57.72
2022-07-28T17:55:02.724Z,58.22
2022-07-28T17:56:02.711Z,58.64
2022-07-28T17:57:02.737Z,58.84
2022-07-28T17:58:02.660Z,59.14
2022-07-28T17:59:02.742Z,58.77
2022-07-28T18:00:02.651Z,59.76
2022-07-28T18:01:10.913Z,59.66
2022-07-28T18:02:03.738Z,60.16
2022-07-28T18:03:02.699Z,60.19
2022-07-28T18:04:03.643Z,60.58
2022-07-28T18:05:02.589Z,60.19
2022-07-28T18:06:02.596Z,61.80
2022-07-28T18:07:02.564Z,60.22
2022-07-28T18:08:02.566Z,60.91
2022-07-28T18:09:05.729Z,60.42
2022-07-28T18:10:02.574Z,61.24
2022-07-28T18:11:02.524Z,63.23
2022-07-28T18:12:02.518Z,63.13
2022-07-28T18:13:02.536Z,63.33
2022-07-28T18:14:03.808Z,63.23
2022-07-28T18:15:02.486Z,63.26
2022-07-28T18:16:02.670Z,64.45
2022-07-28T18:17:02.468Z,63.06
2022-07-28T18:18:02.455Z,64.25
2022-07-28T18:19:02.429Z,63.26
2022-07-28T18:20:02.502Z,63.46
2022-07-28T18:21:02.416Z,63.85
2022-07-28T18:22:02.428Z,63.49
2022-07-28T18:23:02.425Z,64.48
2022-07-28T18:24:02.406Z,64.39
2022-07-28T18:25:02.408Z,66.17
2022-07-28T18:26:02.349Z,65.68
2022-07-28T18:27:02.351Z,65.68
2022-07-28T18:28:02.369Z,66.71
2022-07-28T18:29:02.347Z,66.71
2022-07-28T18:30:02.402Z,67.20
2022-07-28T18:31:02.371Z,67.60
2022-07-28T18:32:02.286Z,67.73
2022-07-28T18:33:02.268Z,68.63
2022-07-28T18:34:02.308Z,68.93
2022-07-28T18:35:02.285Z,69.82
2022-07-28T18:36:02.304Z,69.36
2022-07-28T18:37:02.232Z,69.26
2022-07-28T18:38:02.290Z,69.46
2022-07-28T18:39:02.206Z,69.66
2022-07-28T18:40:02.215Z,69.56
2022-07-28T18:41:02.182Z,70.39
2022-07-28T18:42:02.171Z,70.19
2022-07-28T18:43:02.198Z,70.29
2022-07-28T18:44:02.183Z,70.89
2022-07-28T18:45:02.180Z,71.69
2022-07-28T18:46:02.214Z,71.98
2022-07-28T18:47:02.158Z,71.92
2022-07-28T18:48:02.107Z,72.22
2022-07-28T18:49:02.170Z,72.62
2022-07-28T18:50:02.105Z,72.42
2022-07-28T18:51:02.094Z,72.72
2022-07-28T18:52:02.100Z,73.45
2022-07-28T18:53:02.098Z,73.25
2022-07-28T18:54:02.040Z,72.42
2022-07-28T18:55:02.035Z,73.15
2022-07-28T18:56:02.021Z,73.35
2022-07-28T18:57:02.057Z,73.65
2022-07-28T18:58:02.036Z,73.35
2022-07-28T18:59:01.982Z,72.75
2022-07-28T19:00:01.975Z,72.78
2022-07-28T19:01:02.001Z,72.49
2022-07-28T19:02:02.028Z,72.09
2022-07-28T19:03:02.090Z,72.09
2022-07-28T19:04:02.095Z,70.79
2022-07-28T19:05:01.918Z,69.69
2022-07-28T19:06:01.906Z,70.19
2022-07-28T19:07:01.920Z,69.20
2022-07-28T19:08:01.936Z,69.69
2022-07-28T19:09:01.901Z,70.89
2022-07-28T19:10:01.862Z,72.59
2022-07-28T19:11:01.915Z,72.29
2022-07-28T19:12:01.861Z,73.39
2022-07-28T19:13:01.841Z,71.83
2022-07-28T19:14:01.848Z,71.03
2022-07-28T19:15:01.846Z,71.03
2022-07-28T19:16:01.877Z,72.42
2022-07-28T19:17:01.789Z,72.13
2022-07-28T19:18:10.115Z,72.32
2022-07-28T19:19:02.800Z,71.42
2022-07-28T19:20:01.802Z,72.22
2022-07-28T19:21:01.786Z,72.02
2022-07-28T19:22:01.728Z,72.72
2022-07-28T19:23:05.133Z,73.02
2022-07-28T19:24:01.737Z,71.92
2022-07-28T19:25:01.709Z,72.02
2022-07-28T19:26:01.733Z,71.42
2022-07-28T19:27:01.812Z,71.33
2022-07-28T19:28:01.658Z,71.92
2022-07-28T19:29:01.671Z,69.73
2022-07-28T19:30:01.641Z,68.73
2022-07-28T19:31:10.130Z,68.93
2022-07-28T19:32:02.667Z,69.02
2022-07-28T19:33:01.607Z,68.23
2022-07-28T19:34:01.591Z,68.70
2022-07-28T19:35:01.601Z,68.89
2022-07-28T19:36:01.581Z,68.93
2022-07-28T19:37:01.613Z,69.20
2022-07-28T19:38:01.545Z,69.20
2022-07-28T19:39:01.542Z,69.39
2022-07-28T19:40:01.572Z,68.59
2022-07-28T19:41:01.538Z,69.29
2022-07-28T19:42:01.515Z,69.59
2022-07-28T19:43:01.527Z,69.39
2022-07-28T19:44:01.478Z,69.49
2022-07-28T19:45:01.578Z,69.59
2022-07-28T19:46:01.564Z,69.49
2022-07-28T19:47:01.494Z,70.23
2022-07-28T19:48:01.448Z,70.89
2022-07-28T19:49:01.537Z,70.72
2022-07-28T19:50:01.469Z,70.83
2022-07-28T19:51:01.405Z,70.72
2022-07-28T19:52:01.416Z,70.42
2022-07-28T19:53:01.427Z,70.03
2022-07-28T19:54:01.387Z,70.62
2022-07-28T19:55:01.356Z,70.12
2022-07-28T19:56:01.416Z,70.12
2022-07-28T19:57:01.345Z,70.83
2022-07-28T19:58:02.338Z,70.62
2022-07-28T19:59:01.356Z,70.46
2022-07-28T20:00:01.303Z,70.76
2022-07-28T20:01:01.341Z,71.16
2022-07-28T20:02:01.342Z,71.46
2022-07-28T20:04:00.053Z,71.56
2022-07-28T20:04:05.133Z,73.16
2022-07-28T20:05:01.267Z,71.96
2022-07-28T20:06:01.231Z,72.36
2022-07-28T20:07:01.224Z,71.86
2022-07-28T20:08:01.212Z,72.45
2022-07-28T20:09:01.233Z,71.66
2022-07-28T20:10:01.234Z,73.69
2022-07-28T20:11:01.201Z,73.59
2022-07-28T20:12:01.210Z,73.29
2022-07-28T20:13:01.175Z,73.29
2022-07-28T20:14:01.156Z,73.39
2022-07-28T20:15:01.143Z,73.43
2022-07-28T20:16:01.132Z,72.63
2022-07-28T20:17:01.331Z,74.22
2022-07-28T20:18:01.097Z,73.72
2022-07-28T20:19:01.094Z,73.83
2022-07-28T20:20:01.096Z,74.33
2022-07-28T20:21:01.076Z,74.66
2022-07-28T20:22:01.083Z,75.26
2022-07-28T20:23:01.090Z,74.96
2022-07-28T20:24:01.029Z,75.87
2022-07-28T20:25:01.030Z,75.90
2022-07-28T20:26:01.012Z,74.66
2022-07-28T20:27:01.026Z,75.76
2022-07-28T20:28:01.013Z,76.30
2022-07-28T20:29:01.026Z,76.26
2022-07-28T20:30:00.961Z,77.36
2022-07-28T20:31:01.049Z,77.20
2022-07-28T20:32:00.961Z,77.70
2022-07-28T20:33:00.989Z,77.50
2022-07-28T20:34:00.917Z,78.30
2022-07-28T20:35:00.907Z,77.40
2022-07-28T20:36:00.900Z,77.20
2022-07-28T20:37:00.884Z,77.44
2022-07-28T20:38:00.914Z,77.44
2022-07-28T20:39:00.895Z,77.64
2022-07-28T20:40:00.853Z,77.94
2022-07-28T20:41:00.841Z,77.98
2022-07-28T20:42:01.839Z,78.44
2022-07-28T20:43:00.838Z,78.78
2022-07-28T20:44:27.336Z,78.24
2022-07-28T20:45:01.797Z,78.24
2022-07-28T20:46:00.891Z,78.58
2022-07-28T20:47:00.863Z,79.04
2022-07-28T20:48:00.778Z,78.54
2022-07-28T20:49:00.856Z,78.94
2022-07-28T20:50:00.782Z,79.08
2022-07-28T20:51:00.728Z,78.78
2022-07-28T20:52:00.731Z,79.18
2022-07-28T20:53:00.709Z,78.88
2022-07-28T20:54:01.714Z,78.88
2022-07-28T20:55:00.731Z,79.68
2022-07-28T20:56:00.696Z,78.58
2022-07-28T20:57:00.665Z,78.78
2022-07-28T20:58:00.649Z,79.68
2022-07-28T20:59:06.604Z,79.98
2022-07-28T21:00:01.654Z,79.88
2022-07-28T21:01:00.702Z,80.38
2022-07-28T21:02:00.734Z,80.18
2022-07-28T21:03:00.628Z,80.42
2022-07-28T21:04:00.580Z,80.02
2022-07-28T21:05:00.588Z,80.28
2022-07-28T21:06:00.572Z,80.32
2022-07-28T21:07:02.251Z,81.23
2022-07-28T21:08:06.447Z,81.02
2022-07-28T21:09:01.545Z,81.12
2022-07-28T21:10:00.522Z,80.62
2022-07-28T21:11:00.509Z,80.62
2022-07-28T21:12:00.516Z,81.42
2022-07-28T21:13:00.541Z,81.32
2022-07-28T21:14:00.470Z,81.16
2022-07-28T21:15:00.467Z,80.66
2022-07-28T21:16:00.460Z,81.16
2022-07-28T21:17:00.507Z,80.76
2022-07-28T21:18:00.448Z,81.46
2022-07-28T21:19:00.461Z,82.06
2022-07-28T21:20:00.414Z,81.76
2022-07-28T21:21:00.397Z,82.87
2022-07-28T21:22:00.403Z,82.40
2022-07-28T21:23:00.388Z,82.17
2022-07-28T21:24:00.391Z,82.70
2022-07-28T21:25:00.399Z,82.57
2022-07-28T21:26:00.365Z,82.46
2022-07-28T21:27:00.331Z,82.87
2022-07-28T21:28:00.316Z,82.10
2022-07-28T21:29:00.345Z,82.57
2022-07-28T21:30:00.296Z,82.57
2022-07-28T21:31:00.300Z,82.70
2022-07-28T21:32:04.170Z,83.87
2022-07-28T21:33:01.370Z,83.17
2022-07-28T21:34:00.259Z,84.67
2022-07-28T21:35:00.265Z,84.27
2022-07-28T21:36:00.268Z,84.17
2022-07-28T21:37:00.215Z,83.71
2022-07-28T21:38:00.202Z,84.51
2022-07-28T21:39:00.190Z,84.31
2022-07-28T21:40:00.218Z,84.41
2022-07-28T21:41:00.201Z,84.51
2022-07-28T21:42:00.212Z,84.77
2022-07-28T21:43:00.145Z,83.97
2022-07-28T21:44:04.014Z,84.77
2022-07-28T21:45:00.141Z,84.57
2022-07-28T21:46:00.291Z,83.47
2022-07-28T21:47:00.102Z,83.97
2022-07-28T21:48:00.143Z,82.46
2022-07-28T21:49:00.176Z,82.46
2022-07-28T21:50:00.091Z,82.76
2022-07-28T21:51:00.090Z,82.43
2022-07-28T21:52:00.176Z,82.57
2022-07-28T21:53:00.078Z,81.42
2022-07-28T21:54:00.055Z,81.23
2022-07-28T21:55:00.017Z,81.12
2022-07-28T21:56:00.002Z,81.12
2022-07-28T21:56:59.995Z,82.49
2022-07-28T21:57:59.980Z,82.69
2022-07-28T21:59:00.026Z,82.39
2022-07-28T21:59:59.955Z,82.09
2022-07-28T22:01:02.810Z,82.39
2022-07-28T22:01:59.941Z,82.49
2022-07-28T22:03:00.208Z,82.59
2022-07-28T22:03:59.956Z,82.18
2022-07-28T22:05:00.038Z,82.39
2022-07-28T22:05:59.888Z,82.18
2022-07-28T22:06:59.882Z,82.69
2022-07-28T22:07:59.879Z,82.18
2022-07-28T22:08:59.881Z,82.18
2022-07-28T22:09:59.889Z,81.99
2022-07-28T22:10:59.831Z,82.18
2022-07-28T22:11:59.830Z,82.05
2022-07-28T22:12:59.816Z,81.09
2022-07-28T22:13:59.849Z,80.74
2022-07-28T22:14:59.824Z,80.85
2022-07-28T22:15:59.772Z,82.29
2022-07-28T22:16:59.806Z,81.04
2022-07-28T22:17:59.777Z,81.24
2022-07-28T22:18:59.787Z,81.04
2022-07-28T22:19:59.747Z,80.94
2022-07-28T22:20:59.766Z,80.35
2022-07-28T22:21:59.740Z,81.18
2022-07-28T22:22:59.740Z,81.15
2022-07-28T22:23:59.684Z,80.65
2022-07-28T22:24:59.714Z,80.44
2022-07-28T22:25:59.662Z,80.74
2022-07-28T22:26:59.651Z,80.44
2022-07-28T22:27:59.639Z,80.74
2022-07-28T22:28:59.639Z,81.24
2022-07-28T22:29:59.658Z,80.24
2022-07-28T22:31:08.903Z,80.65
2022-07-28T22:32:00.619Z,80.65
2022-07-28T22:32:59.586Z,80.85
2022-07-28T22:33:59.573Z,80.65
2022-07-28T22:34:59.612Z,80.74
2022-07-28T22:35:59.565Z,80.85
2022-07-28T22:36:59.584Z,81.35
2022-07-28T22:37:59.526Z,81.18
2022-07-28T22:38:59.516Z,80.48
2022-07-28T22:39:59.514Z,80.88
2022-07-28T22:40:59.504Z,81.29
2022-07-28T22:41:59.529Z,81.29
2022-07-28T22:42:59.498Z,81.04
2022-07-28T22:43:59.460Z,80.58
2022-07-28T22:44:59.515Z,80.65
2022-07-28T22:45:59.513Z,81.38
2022-07-28T22:46:59.437Z,80.98
2022-07-28T22:47:59.546Z,81.48
2022-07-28T22:48:59.458Z,82.39
2022-07-28T22:49:59.397Z,82.49
2022-07-28T22:50:59.391Z,82.59
2022-07-28T22:51:59.406Z,82.99
2022-07-28T22:52:59.380Z,83.89
2022-07-28T22:53:59.384Z,84.19
2022-07-28T22:54:59.339Z,84.63
2022-07-28T22:55:59.326Z,84.83